Time;durP1;ratioP1;P1;durP2;ratioP2;P2;SDS_P1;SDS_P2;PMS_P1;PMS_P2;Temp;Humidity;BMP_temperature;BMP_pressure;BME280_temperature;BME280_humidity;BME280_pressure;Samples;Min_cycle;Max_cycle;Signal;HPM_P1;HPM_P2
2023/02/09 00:01:13;;;;;;;12.25;7.82;;;-1.20;99.90;;;;;;5048019;28;20506;-66
2023/02/09 00:03:40;;;;;;;13.23;6.70;;;-1.20;99.90;;;;;;5046402;28;20124;-66
2023/02/09 00:06:07;;;;;;;16.00;7.18;;;-1.20;99.90;;;;;;5032289;28;20128;-66
2023/02/09 00:08:34;;;;;;;13.20;7.43;;;-1.30;99.90;;;;;;5048233;28;20041;-84
2023/02/09 00:11:00;;;;;;;9.98;6.55;;;-1.30;99.90;;;;;;5044412;28;20072;-66
2023/02/09 00:13:26;;;;;;;11.50;6.65;;;-1.40;99.90;;;;;;5054540;28;20072;-66
2023/02/09 00:15:54;;;;;;;13.02;7.00;;;-1.40;99.90;;;;;;5048995;28;20357;-66
2023/02/09 00:18:21;;;;;;;12.48;6.90;;;-1.40;99.90;;;;;;5049279;28;20044;-66
2023/02/09 00:20:57;;;;;;;13.73;7.43;;;-1.40;99.90;;;;;;5046878;28;20063;-82
2023/02/09 00:23:24;;;;;;;10.07;6.47;;;-1.30;99.90;;;;;;5048171;28;20052;-66
2023/02/09 00:25:50;;;;;;;12.65;6.70;;;-1.20;99.90;;;;;;5050458;28;20049;-66
2023/02/09 00:28:17;;;;;;;12.52;6.78;;;-1.20;99.90;;;;;;5047922;28;20037;-66
2023/02/09 00:30:43;;;;;;;9.77;6.72;;;-1.20;99.90;;;;;;5047099;28;20565;-66
2023/02/09 00:33:09;;;;;;;11.38;6.70;;;-1.20;99.90;;;;;;5047122;28;20123;-84
2023/02/09 00:35:41;;;;;;;20.85;7.10;;;-1.20;99.90;;;;;;5056558;28;20048;-66
2023/02/09 00:38:09;;;;;;;12.18;6.88;;;-1.20;99.90;;;;;;5045906;28;20437;-66
2023/02/09 00:40:36;;;;;;;13.55;7.15;;;-1.20;99.90;;;;;;5047730;28;20063;-66
2023/02/09 00:43:02;;;;;;;9.43;6.43;;;-1.20;99.90;;;;;;5047983;28;20045;-66
2023/02/09 00:45:28;;;;;;;11.45;6.47;;;-1.20;99.90;;;;;;5049791;28;20093;-66
2023/02/09 00:47:55;;;;;;;10.82;6.60;;;-1.20;99.90;;;;;;5046516;28;20052;-66
2023/02/09 00:50:20;;;;;;;10.25;6.80;;;-1.10;99.90;;;;;;5050472;28;20516;-66
2023/02/09 00:52:46;;;;;;;14.10;6.25;;;-1.10;99.90;;;;;;5047359;28;20088;-66
2023/02/09 00:55:12;;;;;;;9.82;7.15;;;-1.10;99.90;;;;;;5046690;28;20045;-66
2023/02/09 00:57:38;;;;;;;17.85;6.65;;;-1.10;99.90;;;;;;5041793;28;20414;-66
2023/02/09 01:00:06;;;;;;;13.63;6.57;;;-1.10;99.90;;;;;;5047928;28;20045;-66
2023/02/09 01:02:32;;;;;;;11.77;6.78;;;-1.10;99.90;;;;;;5059059;28;20041;-81
2023/02/09 01:04:58;;;;;;;12.77;6.35;;;-1.00;99.90;;;;;;5065830;28;20037;-66
2023/02/09 01:07:24;;;;;;;8.77;5.45;;;-1.00;99.90;;;;;;5057137;28;20558;-66
2023/02/09 01:09:50;;;;;;;15.23;6.88;;;-1.00;99.90;;;;;;5046237;28;20136;-66
2023/02/09 01:12:16;;;;;;;13.02;6.28;;;-1.00;99.90;;;;;;5046754;28;20055;-66
2023/02/09 01:14:41;;;;;;;11.27;6.82;;;-1.10;99.90;;;;;;5052950;28;20040;-66
2023/02/09 01:17:08;;;;;;;11.57;6.68;;;-1.10;99.90;;;;;;5067995;28;20090;-81
2023/02/09 01:19:34;;;;;;;11.93;6.72;;;-1.10;99.90;;;;;;5069332;28;20451;-66
2023/02/09 01:22:00;;;;;;;11.52;7.03;;;-1.10;99.90;;;;;;5072235;28;20074;-66
2023/02/09 01:24:26;;;;;;;7.43;5.90;;;-1.10;99.90;;;;;;5072746;28;20040;-66
2023/02/09 01:26:52;;;;;;;14.95;6.63;;;-1.10;99.90;;;;;;5072952;28;20516;-71
2023/02/09 01:29:19;;;;;;;10.48;6.68;;;-1.10;99.90;;;;;;5070518;28;20041;-67
2023/02/09 01:31:46;;;;;;;11.93;6.68;;;-1.10;99.90;;;;;;5066230;28;20078;-66
2023/02/09 01:34:16;;;;;;;10.02;5.85;;;-1.10;99.90;;;;;;5067394;28;20071;-66
2023/02/09 01:36:43;;;;;;;13.23;6.35;;;-1.00;99.90;;;;;;5035422;28;20064;-66
2023/02/09 01:39:11;;;;;;;10.93;6.70;;;-0.90;99.90;;;;;;5067335;28;20052;-66
2023/02/09 01:41:38;;;;;;;12.35;6.80;;;-0.90;99.90;;;;;;5052273;28;20049;-66
2023/02/09 01:44:25;;;;;;;10.88;6.10;;;-0.80;99.90;;;;;;5066925;28;20123;-66
2023/02/09 01:46:52;;;;;;;9.63;6.10;;;-0.80;99.90;;;;;;5066160;28;20048;-79
2023/02/09 01:49:22;;;;;;;10.63;6.20;;;-0.80;99.90;;;;;;5066464;28;20067;-76
2023/02/09 01:51:53;;;;;;;9.95;6.10;;;-0.80;99.90;;;;;;5066255;28;20353;-66
2023/02/09 01:54:26;;;;;;;12.48;5.95;;;-0.80;99.90;;;;;;5053616;28;20102;-66
2023/02/09 01:57:00;;;;;;;10.55;6.53;;;-0.80;99.90;;;;;;5038895;28;20117;-66
2023/02/09 01:59:27;;;;;;;11.30;6.68;;;-0.80;99.90;;;;;;5066280;28;20040;-66
2023/02/09 02:01:53;;;;;;;9.43;6.20;;;-0.80;99.90;;;;;;5056148;28;20117;-66
2023/02/09 02:04:20;;;;;;;10.55;6.03;;;-0.80;99.90;;;;;;5066667;28;20048;-66
2023/02/09 02:06:47;;;;;;;11.85;6.15;;;-0.80;99.90;;;;;;5043682;28;20049;-67
2023/02/09 02:09:15;;;;;;;14.23;6.05;;;-0.80;99.90;;;;;;5061156;28;20433;-66
2023/02/09 02:11:44;;;;;;;9.40;5.60;;;-0.70;99.90;;;;;;5067692;28;20035;-66
2023/02/09 02:14:34;;;;;;;8.23;5.18;;;-0.70;99.90;;;;;;5064751;28;20047;-66
2023/02/09 02:17:13;;;;;;;9.25;5.65;;;-0.60;99.90;;;;;;5066373;28;20048;-66
2023/02/09 02:20:16;;;;;;;10.88;6.07;;;-0.60;99.90;;;;;;5067397;28;20044;-70
2023/02/09 02:23:13;;;;;;;10.50;5.07;;;-0.50;99.90;;;;;;5066232;28;20444;-66
2023/02/09 02:26:06;;;;;;;9.27;5.88;;;-0.50;99.90;;;;;;5065700;28;20092;-67
2023/02/09 02:28:43;;;;;;;11.38;6.53;;;-0.40;99.90;;;;;;5064036;28;20479;-66
2023/02/09 02:31:55;;;;;;;10.60;5.50;;;-0.40;99.90;;;;;;5064260;28;20414;-66
2023/02/09 02:34:44;;;;;;;10.90;5.63;;;-0.40;99.90;;;;;;5065443;28;20048;-66
2023/02/09 02:37:18;;;;;;;11.75;5.60;;;-0.50;99.90;;;;;;5065315;28;20335;-66
2023/02/09 02:40:01;;;;;;;7.00;4.57;;;-0.40;99.90;;;;;;5064474;28;20424;-78
2023/02/09 02:42:48;;;;;;;9.52;5.75;;;-0.40;99.90;;;;;;5065333;28;20060;-67
2023/02/09 02:45:27;;;;;;;8.85;5.80;;;-0.40;99.90;;;;;;5059465;28;20082;-81
2023/02/09 02:48:23;;;;;;;9.43;4.88;;;-0.40;99.90;;;;;;5052356;28;20588;-66
2023/02/09 02:51:01;;;;;;;11.07;5.63;;;-0.40;99.90;;;;;;5065164;28;20527;-66
2023/02/09 02:53:30;;;;;;;11.70;5.90;;;-0.40;99.90;;;;;;5066587;28;20041;-66
2023/02/09 02:56:01;;;;;;;11.13;5.85;;;-0.40;99.90;;;;;;5066408;28;20040;-66
2023/02/09 02:58:28;;;;;;;12.05;6.43;;;-0.40;99.90;;;;;;5060805;28;20044;-66
2023/02/09 03:01:00;;;;;;;11.18;5.65;;;-0.40;99.90;;;;;;5064903;28;20433;-67
2023/02/09 03:03:32;;;;;;;9.95;5.13;;;-0.40;99.90;;;;;;5058887;28;20050;-66
2023/02/09 03:06:00;;;;;;;10.40;6.35;;;-0.50;99.90;;;;;;5060283;28;20132;-66
2023/02/09 03:08:25;;;;;;;10.82;5.78;;;-0.50;99.90;;;;;;5061937;28;20041;-66
2023/02/09 03:10:51;;;;;;;14.18;6.15;;;-0.50;99.90;;;;;;5065265;28;20048;-67
2023/02/09 03:13:39;;;;;;;12.88;5.90;;;-0.50;99.90;;;;;;5069969;28;20052;-67
2023/02/09 03:16:25;;;;;;;12.15;6.07;;;-0.60;99.90;;;;;;5068803;28;20041;-66
2023/02/09 03:19:00;;;;;;;12.00;5.75;;;-0.60;99.90;;;;;;5067763;28;20051;-85
2023/02/09 03:21:50;;;;;;;12.68;6.00;;;-0.60;99.90;;;;;;5070369;28;20470;-66
2023/02/09 03:24:39;;;;;;;14.95;5.63;;;-0.60;99.90;;;;;;5068547;28;20056;-66
2023/02/09 03:27:20;;;;;;;7.25;4.80;;;-0.60;99.90;;;;;;5068063;28;20513;-66
2023/02/09 03:29:48;;;;;;;;;;;-0.60;99.90;;;;;;5067014;28;20052;-66
2023/02/09 03:32:16;;;;;;;9.95;4.88;;;-0.60;99.90;;;;;;5055720;28;20463;-66
2023/02/09 03:34:43;;;;;;;10.25;5.53;;;-0.50;99.90;;;;;;5052367;28;20049;-67
2023/02/09 03:37:09;;;;;;;10.32;6.38;;;-0.50;99.90;;;;;;5068449;28;20044;-66
2023/02/09 03:39:35;;;;;;;11.90;6.43;;;-0.60;99.90;;;;;;5067967;28;20049;-80
2023/02/09 03:42:01;;;;;;;12.32;5.95;;;-0.60;99.90;;;;;;5067642;28;20071;-85
2023/02/09 03:44:27;;;;;;;15.80;5.80;;;-0.60;99.90;;;;;;5068123;28;20145;-66
2023/02/09 03:47:02;;;;;;;14.73;5.55;;;-0.60;99.90;;;;;;5068677;28;20521;-66
2023/02/09 03:49:32;;;;;;;12.00;6.25;;;-0.50;99.90;;;;;;5068046;28;20048;-67
2023/02/09 03:51:59;;;;;;;10.15;5.50;;;-0.60;99.90;;;;;;5069261;28;20097;-71
2023/02/09 03:54:30;;;;;;;15.88;6.03;;;-0.50;99.90;;;;;;5068403;28;20094;-66
2023/02/09 03:56:57;;;;;;;10.15;5.05;;;-0.50;99.90;;;;;;5069199;28;20051;-66
2023/02/09 03:59:26;;;;;;;13.35;5.30;;;-0.50;99.90;;;;;;5069591;28;20049;-66
2023/02/09 04:01:54;;;;;;;11.50;5.57;;;-0.50;99.90;;;;;;5060418;28;20055;-83
2023/02/09 04:04:20;;;;;;;11.52;5.60;;;-0.50;99.90;;;;;;5068106;28;20052;-66
2023/02/09 04:06:46;;;;;;;12.73;6.53;;;-0.50;99.90;;;;;;5068938;28;20041;-67
2023/02/09 04:09:12;;;;;;;9.60;5.78;;;-0.50;99.90;;;;;;5068044;28;20125;-66
2023/02/09 04:11:38;;;;;;;11.85;6.07;;;-0.50;99.90;;;;;;5062857;28;20040;-66
2023/02/09 04:14:04;;;;;;;8.68;5.30;;;-0.50;99.90;;;;;;5061983;28;20052;-66
2023/02/09 04:16:30;;;;;;;16.10;5.80;;;-0.50;99.90;;;;;;5068233;28;20048;-66
2023/02/09 04:18:56;;;;;;;8.82;5.55;;;-0.50;99.90;;;;;;5066452;28;20055;-66
2023/02/09 04:21:23;;;;;;;10.15;5.43;;;-0.50;99.90;;;;;;5067722;28;20425;-67
2023/02/09 04:23:49;;;;;;;8.90;5.10;;;-0.60;99.90;;;;;;5067898;28;20457;-66
2023/02/09 04:26:15;;;;;;;12.25;5.90;;;-0.50;99.90;;;;;;5067297;28;20048;-79
2023/02/09 04:28:41;;;;;;;11.00;5.25;;;-0.60;99.90;;;;;;5067616;28;20542;-67
2023/02/09 04:31:07;;;;;;;11.15;6.18;;;-0.60;99.90;;;;;;5065589;28;20183;-67
2023/02/09 04:33:33;;;;;;;12.05;6.03;;;-0.60;99.90;;;;;;5068065;28;20068;-67
2023/02/09 04:35:59;;;;;;;10.80;4.97;;;-0.60;99.90;;;;;;5066756;28;20044;-67
2023/02/09 04:38:25;;;;;;;9.80;4.63;;;-0.60;99.90;;;;;;5068547;28;20048;-66
2023/02/09 04:40:53;;;;;;;9.75;5.30;;;-0.60;99.90;;;;;;5068270;28;20143;-66
2023/02/09 04:43:18;;;;;;;13.27;6.70;;;-0.70;99.90;;;;;;5068066;28;20036;-67
2023/02/09 04:45:45;;;;;;;9.57;6.43;;;-0.70;99.90;;;;;;5067267;28;20055;-66
2023/02/09 04:48:14;;;;;;;10.73;6.45;;;-0.70;99.90;;;;;;5068497;28;20044;-66
2023/02/09 04:50:40;;;;;;;12.05;5.50;;;-0.70;99.90;;;;;;5052839;28;20490;-66
2023/02/09 04:53:06;;;;;;;14.93;6.13;;;-0.70;99.90;;;;;;5049350;28;20045;-66
2023/02/09 04:55:35;;;;;;;9.27;4.93;;;-0.70;99.90;;;;;;5069038;28;20040;-67
2023/02/09 05:00:45;;;;;;;10.80;5.22;;;-0.80;99.90;;;;;;5042886;28;20047;-66
2023/02/09 05:03:11;;;;;;;10.48;5.60;;;-0.80;99.90;;;;;;5060736;28;20048;-66
2023/02/09 05:05:41;;;;;;;11.13;5.85;;;-0.80;99.90;;;;;;5063837;28;20111;-67
2023/02/09 05:08:08;;;;;;;12.75;5.57;;;-0.80;99.90;;;;;;5060622;28;20049;-67
2023/02/09 05:10:34;;;;;;;17.65;5.72;;;-0.80;99.90;;;;;;5067656;28;20079;-66
2023/02/09 05:13:00;;;;;;;6.38;4.50;;;-0.80;99.90;;;;;;5067121;28;20250;-66
2023/02/09 05:15:26;;;;;;;9.10;4.30;;;-0.80;99.90;;;;;;5058666;28;20052;-66
2023/02/09 05:17:51;;;;;;;9.85;5.45;;;-0.90;99.90;;;;;;5057343;28;20051;-66
2023/02/09 05:20:18;;;;;;;7.65;4.88;;;-0.90;99.90;;;;;;5066082;28;20490;-66
2023/02/09 05:22:43;;;;;;;9.98;5.47;;;-0.90;99.90;;;;;;5035735;28;20050;-66
2023/02/09 05:25:09;;;;;;;12.63;6.18;;;-0.90;99.90;;;;;;5062982;28;20105;-66
2023/02/09 05:27:35;;;;;;;12.20;5.78;;;-0.90;99.90;;;;;;5065379;28;20045;-66
2023/02/09 05:30:01;;;;;;;9.10;4.88;;;-0.90;99.90;;;;;;5066193;28;20307;-66
2023/02/09 05:32:26;;;;;;;14.48;6.25;;;-0.90;99.90;;;;;;5055034;28;20048;-66
2023/02/09 05:34:52;;;;;;;11.90;4.28;;;-0.90;99.90;;;;;;5061610;28;20135;-91
2023/02/09 05:37:18;;;;;;;13.30;5.03;;;-0.90;99.90;;;;;;5047072;28;20049;-66
2023/02/09 05:39:44;;;;;;;12.00;5.60;;;-0.90;99.90;;;;;;5047335;28;20048;-66
2023/02/09 05:42:15;;;;;;;9.63;5.88;;;-0.80;99.90;;;;;;5053419;28;20506;-66
2023/02/09 05:44:48;;;;;;;12.40;5.10;;;-0.80;99.90;;;;;;5051320;28;20160;-84
2023/02/09 05:47:17;;;;;;;8.18;4.43;;;-0.80;99.90;;;;;;5046456;28;20052;-66
2023/02/09 05:49:43;;;;;;;15.57;5.47;;;-0.70;99.50;;;;;;5046698;28;20867;-90
2023/02/09 05:52:10;;;;;;;9.90;5.38;;;-0.60;98.70;;;;;;5047931;28;20128;-66
2023/02/09 05:54:36;;;;;;;8.75;5.38;;;-0.60;98.70;;;;;;5044989;28;20041;-66
2023/02/09 05:57:02;;;;;;;7.53;4.13;;;-0.50;97.60;;;;;;5058285;28;20130;-66
2023/02/09 05:59:28;;;;;;;6.00;3.60;;;-0.50;97.00;;;;;;5036446;28;20469;-66
2023/02/09 06:01:53;;;;;;;8.25;4.80;;;-0.50;96.20;;;;;;5047732;28;20052;-66
2023/02/09 06:04:20;;;;;;;10.85;6.07;;;-0.50;96.30;;;;;;5064229;28;20486;-66
2023/02/09 06:06:46;;;;;;;10.77;5.20;;;-0.50;95.10;;;;;;5062057;28;20069;-66
2023/02/09 06:09:12;;;;;;;15.23;5.03;;;-0.50;95.70;;;;;;5050326;28;20139;-66
2023/02/09 06:11:38;;;;;;;10.82;5.40;;;-0.50;96.40;;;;;;5060916;28;20040;-66
2023/02/09 06:14:04;;;;;;;10.05;3.97;;;-0.60;97.40;;;;;;5060982;28;20056;-66
2023/02/09 06:16:30;;;;;;;11.05;4.85;;;-0.50;98.10;;;;;;5064787;28;20386;-66
2023/02/09 06:18:56;;;;;;;6.28;4.28;;;-0.50;98.20;;;;;;5065692;28;20406;-66
2023/02/09 06:21:22;;;;;;;16.27;6.05;;;-0.50;97.20;;;;;;5056466;28;20044;-92
2023/02/09 06:23:47;;;;;;;11.57;5.30;;;-0.50;97.70;;;;;;5065215;28;20059;-67
2023/02/09 06:26:15;;;;;;;10.15;5.20;;;-0.60;98.00;;;;;;5067375;28;20406;-66
2023/02/09 06:28:42;;;;;;;8.32;4.93;;;-0.60;96.90;;;;;;5050691;28;20041;-66
2023/02/09 06:31:08;;;;;;;9.38;5.55;;;-0.60;97.90;;;;;;5046256;28;20048;-66
2023/02/09 06:33:35;;;;;;;12.93;5.57;;;-0.60;96.60;;;;;;5054653;28;20314;-74
2023/02/09 06:36:01;;;;;;;10.70;4.65;;;-0.50;96.60;;;;;;5037599;28;20053;-88
2023/02/09 06:38:30;;;;;;;9.82;5.45;;;-0.50;96.30;;;;;;5053508;28;20044;-83
2023/02/09 06:40:56;;;;;;;12.00;3.38;;;-0.50;96.90;;;;;;5063791;28;20523;-67
2023/02/09 06:43:21;;;;;;;10.90;5.90;;;-0.50;97.20;;;;;;5058582;28;20052;-68
2023/02/09 06:45:47;;;;;;;7.22;4.35;;;-0.50;97.10;;;;;;5054192;28;20045;-68
2023/02/09 06:48:13;;;;;;;7.88;5.25;;;-0.50;97.30;;;;;;5053276;28;20119;-66
2023/02/09 06:50:39;;;;;;;7.15;3.83;;;-0.50;98.30;;;;;;5051070;28;20123;-66
2023/02/09 06:53:05;;;;;;;14.45;5.78;;;-0.50;98.70;;;;;;5045106;28;20418;-66
2023/02/09 06:55:32;;;;;;;8.18;5.00;;;-0.60;98.10;;;;;;5065369;28;20044;-66
2023/02/09 06:57:58;;;;;;;10.15;5.05;;;-0.50;98.10;;;;;;5064262;28;20052;-66
2023/02/09 07:00:24;;;;;;;11.88;4.82;;;-0.40;97.50;;;;;;5066100;28;20047;-66
2023/02/09 07:02:50;;;;;;;9.60;3.78;;;-0.50;97.80;;;;;;5063096;28;20048;-67
2023/02/09 07:05:16;;;;;;;10.82;5.22;;;-0.50;97.10;;;;;;5058667;28;20053;-67
2023/02/09 07:07:43;;;;;;;8.00;5.50;;;-0.50;95.00;;;;;;5040367;28;20044;-66
2023/02/09 07:10:11;;;;;;;12.55;5.90;;;-0.50;94.80;;;;;;5063540;28;20078;-66
2023/02/09 07:12:37;;;;;;;7.78;4.85;;;-0.50;94.70;;;;;;5070991;28;20465;-66
2023/02/09 07:15:03;;;;;;;6.82;4.20;;;-0.40;95.00;;;;;;5072167;28;20051;-67
2023/02/09 07:17:30;;;;;;;8.15;5.03;;;-0.40;95.10;;;;;;5065510;28;20041;-66
2023/02/09 07:19:56;;;;;;;13.00;5.93;;;-0.40;94.80;;;;;;5054983;28;20129;-66
2023/02/09 07:22:24;;;;;;;10.68;6.45;;;-0.40;93.30;;;;;;5053461;28;20033;-66
2023/02/09 07:24:50;;;;;;;9.80;4.90;;;-0.30;94.60;;;;;;5034300;28;20526;-66
2023/02/09 07:27:18;;;;;;;11.00;5.28;;;-0.30;95.00;;;;;;5049252;28;20052;-66
2023/02/09 07:29:43;;;;;;;6.85;4.13;;;-0.40;95.40;;;;;;5035123;28;20056;-66
2023/02/09 07:32:10;;;;;;;12.18;5.88;;;-0.40;95.90;;;;;;5057921;28;20553;-66
2023/02/09 07:34:37;;;;;;;10.25;6.18;;;-0.40;96.80;;;;;;5050901;28;20045;-66
2023/02/09 07:37:03;;;;;;;16.00;5.82;;;-0.40;97.20;;;;;;5051732;28;20090;-66
2023/02/09 07:39:30;;;;;;;9.90;5.93;;;-0.40;97.70;;;;;;5051218;28;20452;-80
2023/02/09 07:41:56;;;;;;;12.02;5.82;;;-0.40;98.80;;;;;;5048581;28;20500;-67
2023/02/09 07:44:22;;;;;;;7.75;5.40;;;-0.40;99.20;;;;;;5051830;28;20123;-67
2023/02/09 07:46:49;;;;;;;13.52;5.57;;;-0.40;99.80;;;;;;5051839;28;20126;-67
2023/02/09 07:49:14;;;;;;;11.02;6.47;;;-0.40;99.90;;;;;;5053230;28;20055;-67
2023/02/09 07:51:40;;;;;;;19.13;5.30;;;-0.30;99.90;;;;;;5056212;28;20048;-67
2023/02/09 07:54:09;;;;;;;9.15;5.47;;;-0.30;99.70;;;;;;5054665;28;20502;-67
2023/02/09 07:56:35;;;;;;;14.38;5.28;;;-0.30;99.90;;;;;;5047619;28;20143;-67
2023/02/09 07:59:00;;;;;;;15.55;6.20;;;-0.30;99.90;;;;;;5049220;28;20171;-67
2023/02/09 08:01:27;;;;;;;16.50;5.50;;;-0.30;99.90;;;;;;5049624;28;20510;-67
2023/02/09 08:03:52;;;;;;;12.82;6.00;;;-0.30;99.90;;;;;;5050105;28;20367;-67
2023/02/09 08:06:24;;;;;;;15.20;5.93;;;-0.30;99.90;;;;;;5052378;28;20122;-67
2023/02/09 08:08:51;;;;;;;16.83;6.05;;;-0.20;99.90;;;;;;5045132;28;20036;-67
2023/02/09 08:11:24;;;;;;;12.52;6.40;;;-0.20;99.90;;;;;;5068642;28;20047;-67
2023/02/09 08:13:53;;;;;;;9.77;5.20;;;-0.10;99.90;;;;;;5067810;28;20059;-67
2023/02/09 08:16:23;;;;;;;10.95;6.38;;;-0.10;99.90;;;;;;5068784;28;20036;-67
2023/02/09 08:18:59;;;;;;;9.55;5.32;;;0.00;99.90;;;;;;5069428;28;20048;-67
2023/02/09 08:21:27;;;;;;;13.30;6.28;;;0.00;99.90;;;;;;5068485;28;20498;-67
2023/02/09 08:23:55;;;;;;;9.82;5.97;;;0.10;99.90;;;;;;5069472;28;20037;-67
2023/02/09 08:26:21;;;;;;;9.30;5.13;;;0.10;99.90;;;;;;5068252;28;20083;-67
2023/02/09 08:28:47;;;;;;;10.63;5.03;;;0.20;99.90;;;;;;5058192;28;20119;-67
2023/02/09 08:31:16;;;;;;;11.63;5.45;;;0.20;99.90;;;;;;5057940;28;20060;-67
2023/02/09 08:33:43;;;;;;;11.15;5.72;;;0.30;99.50;;;;;;5056571;28;20063;-66
2023/02/09 08:36:11;;;;;;;9.35;5.55;;;0.30;97.70;;;;;;5058935;28;20105;-67
2023/02/09 08:38:37;;;;;;;8.38;5.50;;;0.40;98.60;;;;;;5061779;28;20417;-66
2023/02/09 08:41:04;;;;;;;12.68;5.97;;;0.50;97.70;;;;;;5066569;28;20036;-67
2023/02/09 08:43:31;;;;;;;9.23;4.80;;;0.50;95.30;;;;;;5064508;28;20041;-67
2023/02/09 08:46:11;;;;;;;9.02;4.93;;;0.60;93.80;;;;;;5065794;28;20049;-90
2023/02/09 08:48:39;;;;;;;;;;;0.70;92.00;;;;;;5065230;28;20045;-67
2023/02/09 08:51:06;;;;;;;10.43;6.07;;;0.70;91.50;;;;;;5062001;28;19925;-66
2023/02/09 08:53:32;;;;;;;10.10;5.65;;;0.80;91.20;;;;;;5061243;28;20099;-70
2023/02/09 08:55:59;;;;;;;5.70;4.05;;;0.80;89.10;;;;;;5063553;28;20052;-67
2023/02/09 08:58:25;;;;;;;8.63;5.00;;;0.90;90.10;;;;;;5057600;28;20044;-67
2023/02/09 09:00:58;;;;;;;11.05;5.75;;;0.90;89.00;;;;;;5062017;28;20048;-67
2023/02/09 09:03:30;;;;;;;14.82;6.72;;;1.00;88.60;;;;;;5096039;28;20083;-67
2023/02/09 09:06:04;;;;;;;12.75;6.70;;;1.00;89.60;;;;;;5059605;28;20056;-67
2023/02/09 09:08:32;;;;;;;15.73;6.47;;;1.00;90.20;;;;;;5060919;28;20033;-67
2023/02/09 09:10:59;;;;;;;6.22;3.95;;;1.10;91.60;;;;;;5065015;28;20108;-66
2023/02/09 09:13:25;;;;;;;9.55;5.05;;;1.10;91.00;;;;;;5046276;28;20449;-67
2023/02/09 09:15:54;;;;;;;5.93;4.32;;;1.20;91.80;;;;;;5066349;28;20044;-87
2023/02/09 09:18:20;;;;;;;14.57;6.43;;;1.20;91.50;;;;;;5067097;28;20056;-67
2023/02/09 09:20:46;;;;;;;12.15;6.18;;;1.20;91.40;;;;;;5066481;28;20407;-67
2023/02/09 09:23:12;;;;;;;10.43;4.93;;;1.30;90.50;;;;;;5041981;28;20430;-67
2023/02/09 09:25:39;;;;;;;5.65;3.60;;;1.30;91.40;;;;;;5066256;28;20489;-67
2023/02/09 09:28:06;;;;;;;16.00;6.20;;;1.40;92.10;;;;;;5066121;28;20059;-67
2023/02/09 09:30:32;;;;;;;7.68;5.13;;;1.40;91.10;;;;;;5067326;28;20048;-67
2023/02/09 09:32:58;;;;;;;9.27;5.05;;;1.50;90.80;;;;;;5062945;28;20057;-67
2023/02/09 09:35:25;;;;;;;10.85;6.22;;;1.60;90.10;;;;;;5055129;28;20045;-67
2023/02/09 09:37:52;;;;;;;12.57;6.65;;;1.60;91.40;;;;;;5067423;28;20051;-67
2023/02/09 09:40:24;;;;;;;15.80;5.95;;;1.70;90.50;;;;;;5067854;28;20044;-67
2023/02/09 09:43:04;;;;;;;10.68;5.70;;;1.70;89.90;;;;;;5066043;28;20037;-91
2023/02/09 09:45:33;;;;;;;10.55;6.50;;;1.80;88.60;;;;;;5055245;28;20089;-67
2023/02/09 09:48:00;;;;;;;10.20;5.43;;;1.90;90.00;;;;;;5066421;28;20041;-67
2023/02/09 09:50:37;;;;;;;5.38;4.10;;;2.00;86.70;;;;;;5066223;28;20414;-67
2023/02/09 09:53:11;;;;;;;11.43;6.55;;;2.00;88.70;;;;;;5048671;28;20056;-67
2023/02/09 09:55:37;;;;;;;12.90;6.07;;;2.10;86.20;;;;;;5052464;28;20041;-67
2023/02/09 09:58:05;;;;;;;9.93;4.90;;;2.20;88.90;;;;;;5064069;28;20095;-67
2023/02/09 10:00:37;;;;;;;8.95;6.07;;;2.30;84.60;;;;;;5082191;28;20094;-67
2023/02/09 10:03:11;;;;;;;9.80;5.97;;;2.30;82.80;;;;;;5059099;28;20052;-67
2023/02/09 10:05:39;;;;;;;13.68;6.63;;;2.40;83.60;;;;;;5061964;28;20470;-67
2023/02/09 10:08:27;;;;;;;18.40;6.85;;;2.50;83.80;;;;;;5048483;28;20048;-67
2023/02/09 10:11:04;;;;;;;10.07;5.85;;;2.50;86.10;;;;;;5063110;28;20467;-67
2023/02/09 10:13:49;;;;;;;11.15;6.63;;;2.60;83.40;;;;;;5064598;28;20050;-67
2023/02/09 10:16:26;;;;;;;12.13;6.03;;;2.60;80.10;;;;;;5060794;28;20033;-93
2023/02/09 10:19:00;;;;;;;11.05;6.32;;;2.70;82.50;;;;;;5064119;28;20458;-67
2023/02/09 10:21:37;;;;;;;14.13;6.95;;;2.70;82.90;;;;;;5057247;28;20043;-67
2023/02/09 10:24:11;;;;;;;11.75;6.22;;;2.80;83.20;;;;;;5064628;28;20127;-67
2023/02/09 10:26:38;;;;;;;18.42;7.47;;;2.80;79.50;;;;;;5048154;28;20478;-67
2023/02/09 10:29:10;;;;;;;15.15;7.00;;;2.80;81.10;;;;;;5064555;28;20045;-67
2023/02/09 10:31:46;;;;;;;12.05;6.53;;;2.90;82.70;;;;;;5060434;28;20095;-94
2023/02/09 10:34:18;;;;;;;19.23;7.75;;;2.90;84.90;;;;;;5052581;28;20056;-67
2023/02/09 10:36:49;;;;;;;9.48;6.65;;;2.90;84.50;;;;;;5058091;28;20135;-67
2023/02/09 10:39:19;;;;;;;12.40;6.95;;;3.00;83.30;;;;;;5054778;28;20139;-67
2023/02/09 10:41:48;;;;;;;16.52;6.95;;;3.00;85.50;;;;;;5046925;28;20183;-67
2023/02/09 10:44:25;;;;;;;13.95;6.90;;;2.90;83.50;;;;;;5029597;28;20124;-67
2023/02/09 10:47:28;;;;;;;14.85;7.35;;;2.90;87.60;;;;;;5065334;28;20123;-67
2023/02/09 10:50:12;;;;;;;12.02;7.28;;;3.00;87.70;;;;;;5062071;28;20124;-67
2023/02/09 10:52:43;;;;;;;12.80;6.68;;;3.00;87.60;;;;;;5061528;28;20383;-67
2023/02/09 10:55:35;;;;;;;12.85;7.13;;;3.00;88.80;;;;;;5061016;28;20120;-67
2023/02/09 10:58:09;;;;;;;12.82;5.80;;;3.10;84.50;;;;;;5061347;28;20127;-91
2023/02/09 11:01:07;;;;;;;15.73;7.13;;;3.20;88.20;;;;;;5061708;28;20524;-67
2023/02/09 11:03:34;;;;;;;14.13;6.80;;;3.30;88.20;;;;;;5063062;28;20769;-67
2023/02/09 11:06:14;;;;;;;14.50;7.05;;;3.40;89.40;;;;;;5062581;28;20115;-67
2023/02/09 11:08:46;;;;;;;15.35;7.65;;;3.40;90.70;;;;;;5056532;28;20045;-67
2023/02/09 11:11:18;;;;;;;9.40;6.30;;;3.50;89.30;;;;;;5059304;28;20039;-67
2023/02/09 11:13:44;;;;;;;12.07;7.60;;;3.50;90.00;;;;;;5064894;28;20053;-67
2023/02/09 11:16:25;;;;;;;13.10;6.78;;;3.60;91.00;;;;;;5065488;28;20501;-67
2023/02/09 11:19:14;;;;;;;18.20;7.80;;;3.70;89.60;;;;;;5052762;28;20433;-68
2023/02/09 11:21:58;;;;;;;17.20;8.52;;;3.70;87.90;;;;;;5060112;28;20037;-68
2023/02/09 11:24:46;;;;;;;16.17;7.25;;;3.70;87.80;;;;;;5052540;28;20052;-67
2023/02/09 11:27:27;;;;;;;14.35;6.80;;;3.70;87.10;;;;;;5046684;28;20049;-67
2023/02/09 11:30:25;;;;;;;17.10;7.40;;;3.60;86.80;;;;;;5057991;28;20121;-67
2023/02/09 11:32:58;;;;;;;9.60;5.78;;;3.60;89.00;;;;;;5046914;28;20048;-67
2023/02/09 11:35:57;;;;;;;9.75;5.55;;;3.60;88.40;;;;;;5058198;28;20083;-67
2023/02/09 11:38:51;;;;;;;14.87;8.53;;;3.60;91.60;;;;;;5055982;28;20132;-67
2023/02/09 11:44:51;;;;;;;17.35;8.38;;;3.60;92.60;;;;;;5043630;28;20071;-76
2023/02/09 11:47:37;;;;;;;19.70;8.18;;;3.60;92.90;;;;;;5054637;28;20056;-67
2023/02/09 11:50:08;;;;;;;23.77;8.25;;;3.60;94.70;;;;;;5070518;28;20044;-67
2023/02/09 11:52:47;;;;;;;17.17;8.98;;;3.70;94.70;;;;;;5083635;28;20715;-72
2023/02/09 11:55:31;;;;;;;14.05;8.35;;;3.70;94.40;;;;;;5068936;28;20052;-67
2023/02/09 11:58:13;;;;;;;19.33;8.40;;;3.80;95.70;;;;;;5066072;28;20036;-67
2023/02/09 12:00:53;;;;;;;15.30;8.75;;;3.80;96.40;;;;;;5063966;28;20041;-91
2023/02/09 12:03:18;;;;;;;18.07;9.17;;;3.90;95.80;;;;;;5046035;28;20045;-67
2023/02/09 12:05:45;;;;;;;19.00;8.77;;;3.90;96.90;;;;;;5048709;28;20630;-67
2023/02/09 12:08:38;;;;;;;13.43;7.13;;;4.00;95.80;;;;;;5049718;28;20116;-67
2023/02/09 12:11:27;;;;;;;21.35;9.23;;;4.10;95.00;;;;;;5062354;28;20048;-67
2023/02/09 12:14:32;;;;;;;22.48;8.60;;;4.10;95.00;;;;;;5064650;28;20117;-79
2023/02/09 12:17:29;;;;;;;15.15;8.48;;;4.10;95.70;;;;;;5056295;28;20412;-67
2023/02/09 12:19:58;;;;;;;13.90;8.73;;;4.10;96.10;;;;;;5065912;28;20057;-67
2023/02/09 12:22:33;;;;;;;18.58;9.18;;;4.10;97.00;;;;;;5043253;28;20047;-67
2023/02/09 12:25:11;;;;;;;15.20;9.00;;;4.10;97.40;;;;;;5048815;28;20139;-83
2023/02/09 12:27:40;;;;;;;14.65;7.63;;;4.10;97.70;;;;;;5047679;28;20041;-67
2023/02/09 12:30:38;;;;;;;17.05;9.40;;;4.10;97.60;;;;;;5049486;28;20091;-67
2023/02/09 12:33:14;;;;;;;19.38;9.60;;;4.00;97.80;;;;;;5025121;28;20080;-67
2023/02/09 12:35:41;;;;;;;14.25;9.25;;;4.00;98.70;;;;;;5048209;28;20048;-67
2023/02/09 12:38:18;;;;;;;15.68;9.20;;;4.00;99.20;;;;;;5049155;28;20130;-67
2023/02/09 12:41:01;;;;;;;23.13;9.82;;;3.90;99.50;;;;;;5043714;28;20099;-67
2023/02/09 12:43:30;;;;;;;18.95;8.55;;;3.90;99.90;;;;;;5048276;28;20044;-67
2023/02/09 12:46:16;;;;;;;16.17;9.27;;;3.90;99.90;;;;;;5052072;28;20483;-67
2023/02/09 12:48:59;;;;;;;22.33;9.02;;;4.00;99.90;;;;;;5045854;28;20037;-67
2023/02/09 12:51:36;;;;;;;26.70;10.00;;;4.00;99.90;;;;;;5047962;28;20048;-67
2023/02/09 12:54:55;;;;;;;13.15;7.05;;;4.00;99.90;;;;;;5045078;28;20049;-67
2023/02/09 12:57:22;;;;;;;17.20;9.20;;;4.00;99.90;;;;;;5027597;28;20075;-67
2023/02/09 12:59:49;;;;;;;21.15;10.05;;;4.00;99.90;;;;;;5047837;28;20136;-68
2023/02/09 13:02:38;;;;;;;18.08;9.98;;;4.00;99.90;;;;;;5045823;28;20179;-68
2023/02/09 13:05:20;;;;;;;16.63;8.93;;;4.00;99.90;;;;;;5047090;28;20060;-90
2023/02/09 13:08:01;;;;;;;19.48;9.57;;;4.00;99.90;;;;;;5048535;28;20459;-68
2023/02/09 13:10:32;;;;;;;23.30;8.65;;;3.90;99.90;;;;;;5051388;28;20037;-67